メインページ
METAR-TAF:

METAR-TAF

空港 :

Weno, ミクロネシア

チューク国際空港

緯度: 07-28N, 経度: 151-51E, 海抜: 3m

現時点の気象観測

当レポートは47分前の09:51(UTC)に作成
北東の風 8kt
気温 29°C
湿度 84%
気圧 1010 hPa
視程: 24.1km
高度1400ftの雲はほとんどない
高度29000ftの雲は散在している

METAR: PTKK 230951Z 04008KT 15SM FEW014 SCT290 29/26 A2983 RMK SLP103 T02860256

時間: 20:38 (10:38 UTC)

予報

当レポートは5時間8分前の05:30(UTC)に作成
予報は23日の 06時(UTC)から 24日の 06時(UTC)まで有効
北東の風 10kt
視程: 10km
高度1400ftの雲はほとんどない
高度3000ftの雲は散在している

TAF: PTKK 230530Z 2306/2406 05010KT P6SM FEW014 SCT030

4,000以上の空港の気象観測と天気予報(METAR報とTAF報)

利用可能な観測所は地図上に黄色い丸と赤い丸で示す。

丸の上にカーソルを重ねると観測所名を参照できる。

次にクリックすると気象観測と天気予報を参照できる。

マップの切り替え:黒色「×」印の緑ボタンをクリックして拡大、「-」印の緑ボタンをクリックして縮小、緑色の三角印をクリックして隣りの地図に切り替え


METAR-TAF: